createdAt,value
2024-03-15T00:02:55.809Z,9.81
2024-03-15T00:07:58.731Z,9.86
2024-03-15T00:13:04.545Z,11.90
2024-03-15T00:18:08.949Z,12.26
2024-03-15T00:23:12.491Z,10.61
2024-03-15T00:28:15.350Z,9.55
2024-03-15T00:33:22.853Z,9.78
2024-03-15T00:38:25.704Z,11.86
2024-03-15T00:43:29.050Z,12.06
2024-03-15T00:48:32.042Z,10.35
2024-03-15T00:53:35.867Z,9.14
2024-03-15T00:58:40.095Z,9.36
2024-03-15T01:03:43.021Z,11.30
2024-03-15T01:08:46.184Z,12.18
2024-03-15T01:13:55.281Z,10.85
2024-03-15T01:18:58.791Z,9.18
2024-03-15T01:24:01.735Z,9.17
2024-03-15T01:29:04.574Z,11.14
2024-03-15T01:34:07.482Z,12.02
2024-03-15T01:39:10.463Z,10.54
2024-03-15T01:44:15.068Z,9.08
2024-03-15T01:49:18.448Z,9.14
2024-03-15T01:54:21.291Z,11.08
2024-03-15T01:59:26.178Z,11.68
2024-03-15T02:04:29.002Z,9.86
2024-03-15T02:09:31.933Z,8.51
2024-03-15T02:14:35.174Z,9.80
2024-03-15T02:19:38.288Z,11.32
2024-03-15T02:24:42.034Z,11.15
2024-03-15T02:29:46.461Z,9.18
2024-03-15T02:34:52.118Z,8.85
2024-03-15T02:39:55.075Z,10.66
2024-03-15T02:44:58.089Z,11.55
2024-03-15T02:50:01.237Z,10.39
2024-03-15T02:55:05.696Z,8.78
2024-03-15T03:00:11.344Z,8.80
2024-03-15T03:05:14.280Z,10.69
2024-03-15T03:10:17.111Z,11.68
2024-03-15T03:15:21.431Z,10.87
2024-03-15T03:20:25.260Z,9.00
2024-03-15T03:25:28.433Z,9.03
2024-03-15T03:30:31.558Z,10.90
2024-03-15T03:35:34.695Z,11.94
2024-03-15T03:40:38.373Z,11.17
2024-03-15T03:45:48.430Z,9.45
2024-03-15T03:50:52.076Z,9.39
2024-03-15T03:55:54.983Z,11.26
2024-03-15T04:01:00.437Z,12.17
2024-03-15T04:06:03.850Z,10.89
2024-03-15T04:11:06.795Z,9.42
2024-03-15T04:16:09.836Z,9.40
2024-03-15T04:21:13.512Z,11.36
2024-03-15T04:26:16.988Z,12.02
2024-03-15T04:31:22.103Z,10.31
2024-03-15T04:36:25.734Z,9.05
2024-03-15T04:41:29.004Z,9.28
2024-03-15T04:46:32.003Z,11.37
2024-03-15T04:51:35.233Z,12.16
2024-03-15T04:56:38.054Z,10.56
2024-03-15T05:01:40.910Z,9.30
2024-03-15T05:06:44.943Z,9.48
2024-03-15T05:11:48.012Z,11.57
2024-03-15T05:16:57.550Z,12.35
2024-03-15T05:22:01.141Z,10.74
2024-03-15T05:27:04.533Z,9.52
2024-03-15T05:32:08.382Z,9.69
2024-03-15T05:37:11.432Z,11.76
2024-03-15T05:42:14.444Z,12.13
2024-03-15T05:47:18.011Z,10.46
2024-03-15T05:52:21.739Z,9.32
2024-03-15T05:57:28.202Z,9.62
2024-03-15T06:02:31.265Z,11.77
2024-03-15T06:07:35.696Z,12.07
2024-03-15T06:12:38.698Z,10.50
2024-03-15T06:17:42.504Z,9.58
2024-03-15T06:22:49.032Z,9.96
2024-03-15T06:27:52.279Z,12.12
2024-03-15T06:33:00.444Z,12.20
2024-03-15T06:38:18.419Z,10.66
2024-03-15T06:43:36.964Z,9.73
2024-03-15T06:48:46.254Z,10.16
2024-03-15T06:53:49.267Z,12.47
2024-03-15T06:58:52.106Z,12.07
2024-03-15T07:03:56.940Z,10.67
2024-03-15T07:09:00.714Z,9.88
2024-03-15T07:14:05.926Z,10.18
2024-03-15T07:19:09.409Z,12.25
2024-03-15T07:24:12.755Z,12.36
2024-03-15T07:29:15.916Z,10.90
2024-03-15T07:34:19.175Z,10.02
2024-03-15T07:39:24.529Z,10.37
2024-03-15T07:44:29.164Z,12.61
2024-03-15T07:49:32.070Z,12.75
2024-03-15T07:54:35.421Z,11.36
2024-03-15T07:59:38.606Z,10.66
2024-03-15T08:04:46.796Z,10.37
2024-03-15T08:09:50.187Z,10.31
2024-03-15T08:14:53.487Z,11.30
2024-03-15T08:19:56.735Z,13.73
2024-03-15T08:24:59.700Z,13.31
2024-03-15T08:30:05.450Z,12.56
2024-03-15T08:35:09.391Z,12.21
2024-03-15T08:40:14.557Z,12.02
2024-03-15T08:45:18.653Z,11.88
2024-03-15T08:50:38.016Z,12.73
2024-03-15T08:55:43.759Z,14.24
2024-03-15T09:00:50.014Z,13.36
2024-03-15T09:05:53.040Z,12.78
2024-03-15T09:10:55.874Z,12.37
2024-03-15T09:15:59.797Z,12.03
2024-03-15T09:21:02.785Z,11.76
2024-03-15T09:26:08.454Z,11.56
2024-03-15T09:31:24.004Z,11.50
2024-03-15T09:36:35.210Z,11.54
2024-03-15T09:41:39.661Z,12.45
2024-03-15T09:46:43.624Z,14.73
2024-03-15T09:51:51.497Z,14.29
2024-03-15T09:56:55.052Z,13.79
2024-03-15T10:01:58.296Z,13.54
2024-03-15T10:07:03.030Z,13.26
2024-03-15T10:12:06.375Z,13.07
2024-03-15T10:17:11.196Z,13.01
2024-03-15T10:22:14.166Z,13.01
2024-03-15T10:27:17.783Z,13.10
2024-03-15T10:32:20.830Z,13.16
2024-03-15T10:37:24.294Z,13.24
2024-03-15T10:42:27.707Z,13.34
2024-03-15T10:47:30.984Z,13.44
2024-03-15T10:52:35.380Z,13.82
2024-03-15T10:57:39.660Z,15.31
2024-03-15T11:02:46.332Z,14.84
2024-03-15T11:08:01.830Z,14.46
2024-03-15T11:13:05.426Z,14.33
2024-03-15T11:18:10.563Z,14.43
2024-03-15T11:23:18.627Z,14.45
2024-03-15T11:28:23.167Z,14.42
2024-03-15T11:33:27.473Z,14.40
2024-03-15T11:38:30.732Z,14.38
2024-03-15T11:43:34.237Z,14.37
2024-03-15T11:48:37.410Z,14.41
2024-03-15T11:53:40.439Z,14.49
2024-03-15T11:58:43.308Z,14.61
2024-03-15T12:03:46.983Z,14.78
2024-03-15T12:08:50.615Z,14.97
2024-03-15T12:14:01.055Z,15.08
2024-03-15T12:19:04.313Z,15.20
2024-03-15T12:24:08.730Z,15.23
2024-03-15T12:29:11.645Z,15.33
2024-03-15T12:34:14.592Z,15.45
2024-03-15T12:39:17.504Z,15.53
2024-03-15T12:44:20.639Z,15.46
2024-03-15T12:49:57.759Z,15.50
2024-03-15T12:55:01.090Z,15.58
2024-03-15T13:00:07.814Z,15.69
2024-03-15T13:05:15.634Z,15.69
2024-03-15T13:10:20.738Z,15.65
2024-03-15T13:15:24.307Z,15.65
2024-03-15T13:20:27.451Z,15.59
2024-03-15T13:25:36.364Z,15.59
2024-03-15T13:30:41.421Z,15.50
2024-03-15T13:35:44.706Z,15.40
2024-03-15T13:40:48.241Z,15.28
2024-03-15T13:45:58.351Z,15.07
2024-03-15T13:51:01.698Z,14.87
2024-03-15T13:56:11.417Z,14.72
2024-03-15T14:01:19.822Z,14.61
2024-03-15T14:06:22.763Z,14.60
2024-03-15T14:11:25.508Z,14.51
2024-03-15T14:16:28.167Z,14.37
2024-03-15T14:21:30.997Z,14.22
2024-03-15T14:26:37.210Z,14.14
2024-03-15T14:31:39.910Z,14.13
2024-03-15T14:36:42.932Z,14.26
2024-03-15T14:41:45.520Z,14.33
2024-03-15T14:46:48.155Z,14.27
2024-03-15T14:51:50.964Z,14.25
2024-03-15T14:56:53.555Z,14.30
2024-03-15T15:01:56.273Z,14.53
2024-03-15T15:06:59.052Z,14.66
2024-03-15T15:12:02.114Z,14.66
2024-03-15T15:17:08.521Z,14.70
2024-03-15T15:22:11.730Z,14.55
2024-03-15T15:27:18.513Z,14.22
2024-03-15T15:32:21.326Z,13.86
2024-03-15T15:37:23.972Z,13.45
2024-03-15T15:42:28.107Z,13.04
2024-03-15T15:47:31.232Z,12.63
2024-03-15T15:52:35.139Z,12.27
2024-03-15T15:57:41.851Z,11.97
2024-03-15T16:02:45.740Z,11.69
2024-03-15T16:07:48.573Z,11.41
2024-03-15T16:12:51.277Z,11.14
2024-03-15T16:17:54.170Z,10.90
2024-03-15T16:22:58.267Z,10.66
2024-03-15T16:28:01.275Z,10.43
2024-03-15T16:33:07.445Z,10.20
2024-03-15T16:38:11.783Z,9.98
2024-03-15T16:43:14.576Z,10.56
2024-03-15T16:48:19.960Z,12.85
2024-03-15T16:53:24.261Z,13.26
2024-03-15T16:58:29.575Z,11.75
2024-03-15T17:03:34.431Z,10.80
2024-03-15T17:08:38.715Z,10.19
2024-03-15T17:13:41.565Z,9.76
2024-03-15T17:18:46.658Z,10.27
2024-03-15T17:23:50.085Z,12.52
2024-03-15T17:28:52.784Z,13.01
2024-03-15T17:33:55.828Z,11.49
2024-03-15T17:38:58.899Z,10.51
2024-03-15T17:44:01.557Z,9.87
2024-03-15T17:49:04.350Z,10.25
2024-03-15T17:54:07.018Z,12.64
2024-03-15T17:59:09.793Z,13.14
2024-03-15T18:04:12.631Z,11.42
2024-03-15T18:09:15.352Z,10.28
2024-03-15T18:14:18.180Z,9.55
2024-03-15T18:19:20.827Z,10.08
2024-03-15T18:24:23.851Z,12.42
2024-03-15T18:29:28.264Z,13.58
2024-03-15T18:34:30.966Z,12.55
2024-03-15T18:39:34.159Z,10.75
2024-03-15T18:44:36.984Z,9.67
2024-03-15T18:49:43.275Z,10.00
2024-03-15T18:54:49.800Z,12.04
2024-03-15T19:00:01.074Z,13.05
2024-03-15T19:05:05.692Z,11.73
2024-03-15T19:10:09.643Z,10.13
2024-03-15T19:15:12.685Z,10.03
2024-03-15T19:20:16.680Z,12.00
2024-03-15T19:25:20.458Z,12.57
2024-03-15T19:30:23.387Z,10.77
2024-03-15T19:35:26.190Z,9.45
2024-03-15T19:40:28.813Z,9.48
2024-03-15T19:45:31.509Z,11.58
2024-03-15T19:50:35.077Z,12.31
2024-03-15T19:55:39.459Z,10.63
2024-03-15T20:00:42.271Z,9.30
2024-03-15T20:05:47.353Z,9.43
2024-03-15T20:10:50.665Z,11.54
2024-03-15T20:15:55.183Z,12.05
2024-03-15T20:20:57.820Z,10.28
2024-03-15T20:26:00.632Z,9.03
2024-03-15T20:31:05.407Z,9.20
2024-03-15T20:36:08.003Z,11.30
2024-03-15T20:41:11.154Z,12.18
2024-03-15T20:46:16.188Z,10.62
2024-03-15T20:51:21.922Z,9.14
2024-03-15T20:56:26.056Z,9.17
2024-03-15T21:01:28.830Z,11.21
2024-03-15T21:06:34.971Z,12.02
2024-03-15T21:11:38.080Z,10.34
2024-03-15T21:16:41.259Z,8.88
2024-03-15T21:21:44.075Z,9.02
2024-03-15T21:26:47.018Z,11.09
2024-03-15T21:31:50.476Z,11.98
2024-03-15T21:36:54.202Z,10.41
2024-03-15T21:41:58.264Z,8.90
2024-03-15T21:47:00.980Z,8.99
2024-03-15T21:52:05.646Z,11.08
2024-03-15T21:57:08.290Z,12.00
2024-03-15T22:02:15.171Z,10.52
2024-03-15T22:07:18.108Z,8.96
2024-03-15T22:12:20.792Z,8.94
2024-03-15T22:17:23.634Z,10.99
2024-03-15T22:22:26.306Z,11.98
2024-03-15T22:27:29.022Z,10.49
2024-03-15T22:32:31.808Z,8.85
2024-03-15T22:37:34.429Z,8.86
2024-03-15T22:42:37.226Z,10.89
2024-03-15T22:47:40.143Z,11.98
2024-03-15T22:52:44.529Z,11.18
2024-03-15T22:57:47.208Z,9.22
2024-03-15T23:02:54.201Z,8.96
2024-03-15T23:07:57.091Z,10.88
2024-03-15T23:13:02.397Z,11.84
2024-03-15T23:18:07.232Z,11.29
2024-03-15T23:23:10.490Z,9.20
2024-03-15T23:28:13.311Z,8.87
2024-03-15T23:33:18.631Z,10.75
2024-03-15T23:38:21.425Z,11.77
2024-03-15T23:43:24.066Z,10.93
2024-03-15T23:48:28.531Z,8.95
2024-03-15T23:53:31.301Z,8.74
2024-03-15T23:58:33.968Z,10.66
